Time;durP1;ratioP1;P1;durP2;ratioP2;P2;SDS_P1;SDS_P2;PMS_P1;PMS_P2;Temp;Humidity;BMP_temperature;BMP_pressure;BME280_temperature;BME280_humidity;BME280_pressure;Samples;Min_cycle;Max_cycle;Signal;HPM_P1;HPM_P2
2023/04/16 08:18:44;;;;;;;21.45;13.63;;;;;;;21.81;41.09;102393.84;5112141;27;20448;-59
2023/04/16 08:21:11;;;;;;;40.85;25.75;;;;;;;22.50;39.75;102390.75;5106162;28;20070;-53
2023/04/16 08:23:39;;;;;;;58.20;36.08;;;;;;;23.07;38.07;102386.91;5109195;28;20032;-53
2023/04/16 08:26:08;;;;;;;63.58;35.60;;;;;;;23.48;37.43;102385.03;5109771;28;20393;-48
2023/04/16 08:28:36;;;;;;;64.80;40.30;;;;;;;23.80;36.42;102395.81;5109441;28;20435;-57
2023/04/16 08:31:03;;;;;;;82.47;50.40;;;;;;;23.98;36.11;102394.72;5109784;28;20028;-59
2023/04/16 08:33:31;;;;;;;83.18;53.10;;;;;;;24.05;35.81;102403.69;5110032;28;20069;-60
2023/04/16 08:35:58;;;;;;;87.95;54.75;;;;;;;24.16;35.89;102398.81;5109691;28;20047;-57
2023/04/16 08:38:26;;;;;;;90.93;58.92;;;;;;;24.21;36.03;102403.38;5105191;28;20036;-51
2023/04/16 08:40:56;;;;;;;92.57;57.83;;;;;;;24.27;35.51;102405.31;5109640;28;20518;-48
2023/04/16 08:43:24;;;;;;;93.63;56.58;;;;;;;24.32;35.49;102406.38;5107858;28;20034;-58
2023/04/16 08:45:55;;;;;;;96.78;64.78;;;;;;;24.38;35.29;102408.31;5107916;28;20034;-58
2023/04/16 08:48:23;;;;;;;105.43;67.13;;;;;;;24.44;35.31;102408.50;5106651;28;20032;-59
2023/04/16 08:50:52;;;;;;;111.78;68.40;;;;;;;24.46;35.13;102406.81;5108512;28;20028;-57
2023/04/16 08:53:25;;;;;;;95.28;60.95;;;;;;;24.51;34.92;102405.25;5109581;28;20550;-50
2023/04/16 08:55:53;;;;;;;92.72;59.28;;;;;;;24.52;34.72;102407.06;5105244;28;20102;-47
2023/04/16 08:58:22;;;;;;;90.07;56.83;;;;;;;24.41;34.72;102421.50;5105623;28;20032;-58
2023/04/16 09:00:49;;;;;;;99.55;66.70;;;;;;;24.38;34.92;102424.06;5109463;28;20019;-59
2023/04/16 09:03:20;;;;;;;102.55;65.90;;;;;;;24.45;35.09;102428.66;5109526;28;20093;-53
2023/04/16 09:05:49;;;;;;;105.47;66.60;;;;;;;24.45;35.14;102433.91;5107868;28;20081;-59
2023/04/16 09:08:17;;;;;;;90.20;60.40;;;;;;;24.40;34.97;102433.75;5107257;28;20036;-55
2023/04/16 09:10:44;;;;;;;98.05;62.35;;;;;;;24.45;34.71;102440.88;5109141;28;20477;-59
2023/04/16 09:13:14;;;;;;;99.22;62.97;;;;;;;24.45;34.68;102439.16;5109174;28;20084;-55
2023/04/16 09:15:42;;;;;;;95.38;59.38;;;;;;;24.34;35.14;102445.75;5105041;28;20754;-57
2023/04/16 09:18:11;;;;;;;105.88;67.35;;;;;;;24.42;35.10;102441.66;5105511;28;20048;-53
2023/04/16 09:20:39;;;;;;;95.55;63.20;;;;;;;24.35;35.43;102445.81;5108192;28;20028;-58
2023/04/16 09:23:06;;;;;;;95.35;62.22;;;;;;;24.39;34.95;102438.97;5107288;28;20077;-55
2023/04/16 09:25:36;;;;;;;96.88;62.55;;;;;;;24.50;35.16;102436.66;5108036;28;20477;-53
2023/04/16 09:28:03;;;;;;;118.50;74.07;;;;;;;24.50;35.14;102434.06;5099487;28;20064;-51
2023/04/16 09:30:32;;;;;;;108.93;69.50;;;;;;;24.53;34.91;102421.94;5093782;28;20473;-49
2023/04/16 09:33:23;;;;;;;111.45;71.10;;;;;;;24.47;34.99;102424.34;5092629;28;20035;-59
2023/04/16 09:35:53;;;;;;;132.55;82.20;;;;;;;24.12;36.25;102430.16;5091026;28;20043;-49
2023/04/16 09:38:21;;;;;;;125.53;79.15;;;;;;;23.70;36.99;102422.47;5092251;28;20040;-55
2023/04/16 09:40:49;;;;;;;121.55;79.00;;;;;;;23.79;37.17;102432.41;5089874;28;20043;-48
2023/04/16 09:43:17;;;;;;;117.85;74.20;;;;;;;23.71;36.67;102419.03;5089056;28;20107;-47
2023/04/16 09:45:55;;;;;;;124.97;84.13;;;;;;;23.85;37.33;102421.25;5094032;28;20026;-49
2023/04/16 09:48:33;;;;;;;132.32;83.35;;;;;;;24.06;36.65;102429.94;5091487;28;20100;-55
2023/04/16 09:51:01;;;;;;;130.43;87.18;;;;;;;24.05;36.83;102441.25;5094175;28;20105;-52
2023/04/16 09:53:30;;;;;;;129.55;84.57;;;;;;;24.14;36.53;102435.47;5092444;28;20110;-50
2023/04/16 09:55:59;;;;;;;127.38;86.90;;;;;;;24.21;36.88;102426.06;5089581;28;20076;-54
2023/04/16 09:58:27;;;;;;;129.73;79.82;;;;;;;23.95;36.90;102426.91;5093690;28;20421;-51
2023/04/16 10:01:16;;;;;;;114.38;73.93;;;;;;;23.92;36.61;102431.16;5093724;28;20099;-51
2023/04/16 10:03:44;;;;;;;118.22;79.10;;;;;;;23.80;36.80;102423.72;5093106;28;20031;-53
2023/04/16 10:06:19;;;;;;;135.55;90.70;;;;;;;23.83;37.54;102440.44;5093296;28;20032;-59
2023/04/16 10:08:50;;;;;;;;;;;;;;;23.87;37.30;102432.69;5094184;28;20028;-51
2023/04/16 10:11:18;;;;;;;147.13;92.80;;;;;;;24.00;37.45;102431.44;5093996;28;19919;-55
2023/04/16 10:13:47;;;;;;;137.30;91.60;;;;;;;24.08;37.18;102435.22;5094311;28;20055;-54
2023/04/16 10:16:15;;;;;;;157.32;101.00;;;;;;;24.14;37.52;102437.19;5092070;28;20024;-55
2023/04/16 10:18:44;;;;;;;124.32;79.45;;;;;;;24.20;36.38;102440.03;5093095;28;20024;-47
2023/04/16 10:21:14;;;;;;;137.27;89.53;;;;;;;23.94;36.94;102438.22;5094223;28;20025;-53
2023/04/16 10:23:42;;;;;;;135.13;91.38;;;;;;;23.99;37.31;102434.91;5094993;28;20032;-47
2023/04/16 10:26:10;;;;;;;132.80;85.72;;;;;;;24.12;37.06;102435.41;5094627;28;20035;-59
2023/04/16 10:28:38;;;;;;;155.98;97.97;;;;;;;23.96;37.74;102426.09;5074092;28;20035;-50
2023/04/16 10:31:08;;;;;;;149.15;100.53;;;;;;;23.88;37.90;102434.47;5056006;28;20028;-51
2023/04/16 10:33:37;;;;;;;141.65;92.53;;;;;;;24.03;37.40;102431.56;5074341;28;20024;-48
2023/04/16 10:36:16;;;;;;;138.18;92.80;;;;;;;24.05;36.81;102433.41;5074372;28;20033;-47
2023/04/16 10:38:53;;;;;;;129.98;89.18;;;;;;;23.89;37.02;102433.66;5074247;28;20465;-53
2023/04/16 10:41:20;;;;;;;149.50;100.97;;;;;;;23.95;37.49;102442.63;5071765;28;20558;-50
2023/04/16 10:43:50;;;;;;;160.00;100.55;;;;;;;23.95;37.38;102441.75;5074414;28;20029;-59
2023/04/16 10:46:20;;;;;;;134.10;84.63;;;;;;;23.82;37.23;102438.69;5072341;28;20039;-52
2023/04/16 10:48:50;;;;;;;152.07;99.75;;;;;;;23.92;37.04;102444.25;5056371;28;20032;-58
2023/04/16 10:51:37;;;;;;;159.55;105.97;;;;;;;23.85;37.88;102447.47;5073436;28;20401;-59
2023/04/16 10:54:21;;;;;;;157.07;105.80;;;;;;;24.03;37.56;102448.19;5074356;28;20103;-59
2023/04/16 10:56:50;;;;;;;143.02;93.25;;;;;;;24.10;36.76;102449.28;5073429;28;20043;-50
2023/04/16 10:59:21;;;;;;;130.82;84.97;;;;;;;23.78;36.80;102451.59;5072706;28;20032;-51
2023/04/16 11:01:53;;;;;;;158.15;104.80;;;;;;;23.90;37.70;102459.03;5073487;28;20474;-58
2023/04/16 11:04:23;;;;;;;160.75;107.40;;;;;;;23.91;37.49;102447.69;5073872;28;20032;-51
2023/04/16 11:07:20;;;;;;;160.10;107.03;;;;;;;23.94;37.86;102448.69;5073262;28;20053;-54
2023/04/16 11:09:49;;;;;;;127.95;86.40;;;;;;;23.89;37.10;102442.41;5073689;28;20099;-59
2023/04/16 11:12:19;;;;;;;155.60;104.10;;;;;;;23.99;37.85;102448.00;5073434;28;20024;-47
2023/04/16 11:14:53;;;;;;;162.00;111.53;;;;;;;23.96;37.42;102449.69;5073898;28;20028;-46
2023/04/16 11:17:21;;;;;;;160.88;110.28;;;;;;;23.95;37.73;102437.38;5073180;28;20059;-51
2023/04/16 11:19:49;;;;;;;153.68;102.80;;;;;;;24.10;37.04;102454.53;5072133;28;20375;-47
2023/04/16 11:22:19;;;;;;;156.10;101.50;;;;;;;23.96;37.29;102446.16;5073163;28;20020;-56
2023/04/16 11:24:48;;;;;;;138.77;91.45;;;;;;;23.80;37.22;102444.69;5073193;28;20108;-58
2023/04/16 11:27:16;;;;;;;161.15;106.50;;;;;;;23.79;37.51;102453.38;5072031;28;20035;-57
2023/04/16 11:29:44;;;;;;;131.82;89.20;;;;;;;23.94;36.90;102447.81;5073513;28;20430;-54
2023/04/16 11:32:21;;;;;;;129.27;83.70;;;;;;;23.77;37.30;102435.00;5072926;28;20496;-48
2023/04/16 11:34:49;;;;;;;125.20;86.32;;;;;;;23.60;37.88;102441.31;5072746;28;20135;-49
2023/04/16 11:37:21;;;;;;;146.13;97.47;;;;;;;23.71;37.64;102445.22;5071731;28;20036;-58
2023/04/16 11:39:52;;;;;;;159.20;106.60;;;;;;;23.82;37.97;102438.69;5073174;28;20040;-47
2023/04/16 11:42:22;;;;;;;164.13;114.22;;;;;;;23.93;37.67;102438.16;5071735;28;20583;-57
2023/04/16 11:44:54;;;;;;;158.43;107.22;;;;;;;24.05;37.31;102443.00;5073083;28;20485;-59
2023/04/16 11:47:24;;;;;;;160.32;107.32;;;;;;;24.14;37.58;102437.19;5071561;28;20385;-46
2023/04/16 11:49:53;;;;;;;166.27;114.38;;;;;;;24.21;36.83;102436.56;5073133;28;20035;-49
2023/04/16 11:52:32;;;;;;;176.98;116.00;;;;;;;24.08;37.92;102441.38;5072261;28;20119;-53
2023/04/16 11:55:00;;;;;;;159.73;107.65;;;;;;;24.02;37.61;102445.50;5073823;28;20382;-47
2023/04/16 11:57:29;;;;;;;183.05;119.00;;;;;;;24.03;37.55;102447.28;5079930;28;20187;-57
2023/04/16 11:59:57;;;;;;;173.55;121.65;;;;;;;23.89;37.97;102445.03;5073288;28;20029;-58
2023/04/16 12:02:45;;;;;;;144.95;100.28;;;;;;;24.02;37.09;102443.75;5072920;28;20024;-48
2023/04/16 12:05:33;;;;;;;162.85;109.57;;;;;;;23.91;38.33;102438.09;5072861;28;20060;-52
2023/04/16 12:08:05;;;;;;;169.98;116.25;;;;;;;23.90;37.88;102438.06;5071186;28;20031;-57
2023/04/16 12:10:36;;;;;;;154.20;105.13;;;;;;;23.98;37.91;102444.50;5072888;28;20025;-57
2023/04/16 12:13:14;;;;;;;154.07;102.65;;;;;;;23.93;37.45;102440.78;5072514;28;20029;-54
2023/04/16 12:15:46;;;;;;;144.00;95.60;;;;;;;23.91;37.49;102439.84;5072595;28;20028;-58
2023/04/16 12:18:15;;;;;;;171.45;115.47;;;;;;;23.96;37.87;102435.66;5070749;28;20441;-51
2023/04/16 12:20:44;;;;;;;138.77;95.72;;;;;;;23.97;37.18;102437.50;5077742;28;20066;-48
2023/04/16 12:23:23;;;;;;;185.82;120.82;;;;;;;23.93;37.82;102435.56;5092814;28;20032;-57
2023/04/16 12:25:51;;;;;;;172.30;116.93;;;;;;;23.94;38.21;102435.59;5092432;28;20056;-48
2023/04/16 12:28:39;;;;;;;189.68;127.57;;;;;;;24.01;37.90;102436.75;5076884;28;20482;-47
2023/04/16 12:31:06;;;;;;;151.63;102.38;;;;;;;24.15;37.59;102436.38;5075339;28;20482;-58
2023/04/16 12:33:33;;;;;;;155.10;106.18;;;;;;;23.95;37.92;102440.00;5092562;28;20481;-47
2023/04/16 12:36:02;;;;;;;158.18;105.30;;;;;;;24.03;37.40;102432.44;5092955;28;20056;-58
2023/04/16 12:38:29;;;;;;;146.77;92.35;;;;;;;23.63;37.67;102431.84;5090806;28;20024;-49
2023/04/16 12:40:57;;;;;;;150.27;105.25;;;;;;;23.69;38.55;102425.94;5092926;28;20032;-59
2023/04/16 12:43:25;;;;;;;165.60;109.65;;;;;;;23.73;38.54;102424.34;5092231;28;20377;-55
2023/04/16 12:45:52;;;;;;;133.52;90.60;;;;;;;23.62;37.88;102430.06;5091879;28;20055;-52
2023/04/16 12:48:20;;;;;;;131.32;89.65;;;;;;;23.34;38.82;102428.09;5076714;28;20032;-52
2023/04/16 12:50:48;;;;;;;179.85;116.50;;;;;;;23.46;39.17;102430.31;5072384;28;20036;-46
2023/04/16 12:53:17;;;;;;;138.27;90.10;;;;;;;23.38;38.18;102424.78;5073124;28;20032;-60
2023/04/16 12:55:44;;;;;;;175.50;115.53;;;;;;;23.40;39.35;102419.63;5072177;28;20069;-57
2023/04/16 12:58:13;;;;;;;148.88;96.57;;;;;;;23.23;39.39;102416.31;5071735;28;20033;-48
2023/04/16 13:00:41;;;;;;;143.75;98.95;;;;;;;22.96;39.49;102424.84;5072061;28;20062;-50
2023/04/16 13:03:09;;;;;;;160.40;104.32;;;;;;;23.00;39.63;102422.41;5072498;28;20029;-48
2023/04/16 13:05:37;;;;;;;130.60;87.07;;;;;;;23.08;38.91;102425.31;5075667;28;20149;-50
2023/04/16 13:08:04;;;;;;;123.72;84.90;;;;;;;22.96;39.19;102417.88;5074214;28;20021;-59
2023/04/16 13:10:32;;;;;;;127.10;83.32;;;;;;;22.86;39.26;102424.44;5076100;28;20025;-59
2023/04/16 13:12:59;;;;;;;154.88;104.40;;;;;;;22.93;39.75;102422.97;5075921;28;20028;-56
2023/04/16 13:15:26;;;;;;;140.95;90.60;;;;;;;23.06;38.86;102417.44;5075587;28;20107;-49
2023/04/16 13:17:54;;;;;;;125.60;82.03;;;;;;;22.88;39.34;102416.69;5087418;28;20153;-59
2023/04/16 13:20:21;;;;;;;130.82;90.75;;;;;;;22.76;39.30;102410.09;5091758;28;20020;-58
2023/04/16 13:22:50;;;;;;;118.13;79.60;;;;;;;22.64;39.47;102413.94;5084013;28;20025;-47
2023/04/16 13:25:17;;;;;;;128.27;81.90;;;;;;;22.57;39.11;102408.44;5094219;28;20077;-57
2023/04/16 13:27:46;;;;;;;159.52;106.82;;;;;;;22.81;39.71;102414.63;5083499;28;20057;-47
2023/04/16 13:30:13;;;;;;;125.32;82.85;;;;;;;22.72;38.96;102404.69;5075641;28;20078;-45
2023/04/16 13:32:42;;;;;;;155.43;104.95;;;;;;;22.91;39.52;102404.59;5075602;28;20029;-51
2023/04/16 13:35:10;;;;;;;114.00;74.13;;;;;;;22.53;38.76;102395.19;5075472;28;20025;-46
2023/04/16 13:37:39;;;;;;;147.43;98.22;;;;;;;22.82;39.58;102405.94;5073857;28;20028;-52
2023/04/16 13:40:07;;;;;;;122.35;77.78;;;;;;;22.49;39.32;102398.50;5075076;28;20370;-57
2023/04/16 13:42:34;;;;;;;117.07;81.13;;;;;;;22.53;39.69;102403.91;5075297;28;20020;-58
2023/04/16 13:45:03;;;;;;;124.10;82.28;;;;;;;22.54;39.56;102404.81;5075305;28;20051;-46
2023/04/16 13:47:31;;;;;;;152.43;100.93;;;;;;;22.65;39.48;102398.31;5083209;28;20024;-53
2023/04/16 13:49:59;;;;;;;105.70;71.35;;;;;;;22.13;39.38;102396.97;5094239;28;20020;-50
2023/04/16 13:52:28;;;;;;;131.38;87.30;;;;;;;22.53;39.51;102396.06;5094540;28;20488;-52
2023/04/16 13:54:56;;;;;;;104.18;70.53;;;;;;;22.46;38.21;102392.31;5095440;28;20102;-52
2023/04/16 13:57:24;;;;;;;118.45;78.80;;;;;;;22.40;38.93;102401.59;5094331;28;20421;-46
2023/04/16 13:59:51;;;;;;;126.75;86.35;;;;;;;22.63;38.41;102391.25;5095291;28;20435;-58
2023/04/16 14:02:20;;;;;;;128.13;86.20;;;;;;;22.59;39.23;102385.88;5095613;28;20081;-59
2023/04/16 14:04:48;;;;;;;120.07;77.93;;;;;;;22.24;39.37;102386.97;5094878;28;20030;-47
2023/04/16 14:07:17;;;;;;;129.93;85.47;;;;;;;22.46;39.16;102380.97;5087543;28;20063;-55
2023/04/16 14:09:45;;;;;;;146.70;101.90;;;;;;;22.64;39.45;102378.22;5057296;28;20032;-53
2023/04/16 14:12:12;;;;;;;125.82;81.22;;;;;;;22.78;38.79;102381.41;5074613;28;20436;-59
2023/04/16 14:14:41;;;;;;;125.47;82.55;;;;;;;22.45;39.13;102373.94;5074795;28;20020;-51
2023/04/16 14:17:08;;;;;;;114.90;76.72;;;;;;;22.13;39.17;102373.44;5073587;28;20048;-53
2023/04/16 14:19:36;;;;;;;159.35;105.28;;;;;;;22.49;39.50;102367.13;5074924;28;20500;-52
2023/04/16 14:22:04;;;;;;;140.15;94.20;;;;;;;22.60;38.94;102366.75;5074686;28;20040;-50
2023/04/16 14:24:32;;;;;;;130.05;84.18;;;;;;;22.75;38.84;102365.56;5074664;28;20033;-50
2023/04/16 14:26:59;;;;;;;143.10;96.45;;;;;;;22.82;39.14;102359.78;5078203;28;20032;-48
2023/04/16 14:29:28;;;;;;;95.95;61.35;;;;;;;22.33;38.79;102360.34;5094539;28;20032;-59
2023/04/16 14:31:55;;;;;;;116.20;72.95;;;;;;;22.67;39.02;102364.38;5094538;28;20443;-48
2023/04/16 14:34:22;;;;;;;105.65;70.18;;;;;;;22.66;38.75;102363.47;5093416;28;20102;-59
2023/04/16 14:36:50;;;;;;;103.40;68.72;;;;;;;22.66;38.64;102362.59;5094349;28;20399;-47
2023/04/16 14:39:19;;;;;;;105.53;70.28;;;;;;;22.75;38.33;102362.97;5094154;28;20051;-59
2023/04/16 14:41:47;;;;;;;106.82;72.85;;;;;;;22.72;38.48;102355.88;5094503;28;20036;-46
2023/04/16 14:44:14;;;;;;;110.95;71.53;;;;;;;22.85;38.08;102354.63;5094481;28;20024;-47
2023/04/16 14:46:42;;;;;;;109.15;72.30;;;;;;;22.96;37.94;102347.22;5093806;28;20043;-47
2023/04/16 14:49:10;;;;;;;103.88;70.72;;;;;;;23.08;37.96;102346.81;5094322;28;20534;-47
2023/04/16 14:51:37;;;;;;;120.38;78.55;;;;;;;23.06;38.28;102351.09;5094479;28;20024;-53
2023/04/16 14:54:05;;;;;;;121.90;78.68;;;;;;;23.04;37.70;102355.34;5092946;28;20394;-48
2023/04/16 14:56:33;;;;;;;108.75;72.18;;;;;;;23.08;37.78;102352.03;5092212;28;20374;-56
2023/04/16 14:59:01;;;;;;;113.95;75.57;;;;;;;23.02;38.00;102346.56;5074118;28;20033;-53
2023/04/16 15:01:30;;;;;;;127.13;82.32;;;;;;;22.99;38.57;102356.94;5087376;28;20393;-50
2023/04/16 15:03:59;;;;;;;110.00;71.57;;;;;;;23.12;37.88;102347.81;5094287;28;20024;-50
2023/04/16 15:06:27;;;;;;;106.70;69.65;;;;;;;23.62;36.60;102345.34;5092621;28;20070;-46
2023/04/16 15:08:55;;;;;;;126.45;80.47;;;;;;;23.42;37.05;102340.25;5073402;28;20074;-48
2023/04/16 15:11:22;;;;;;;108.05;73.40;;;;;;;23.50;36.94;102344.03;5073977;28;20021;-52
2023/04/16 15:13:50;;;;;;;101.07;67.22;;;;;;;24.95;34.36;102341.06;5073892;28;20138;-48
2023/04/16 15:16:19;;;;;;;110.55;72.82;;;;;;;26.87;30.98;102335.69;5073855;28;20044;-50
2023/04/16 15:18:46;;;;;;;112.47;76.05;;;;;;;26.92;30.95;102335.78;5071626;28;20509;-56
2023/04/16 15:21:14;;;;;;;99.72;67.03;;;;;;;24.72;34.21;102325.50;5073279;28;20021;-52
2023/04/16 15:23:43;;;;;;;119.78;75.90;;;;;;;23.97;35.69;102337.88;5072147;28;20435;-46
2023/04/16 15:26:10;;;;;;;118.68;79.55;;;;;;;23.59;36.72;102321.66;5071593;28;20064;-55
2023/04/16 15:28:38;;;;;;;98.43;66.57;;;;;;;23.21;37.25;102325.53;5073216;28;20039;-48
2023/04/16 15:31:05;;;;;;;93.18;64.28;;;;;;;22.70;38.75;102323.53;5073267;28;20033;-56
2023/04/16 15:33:33;;;;;;;103.50;71.97;;;;;;;23.08;38.37;102322.38;5073380;28;20021;-47
2023/04/16 15:36:00;;;;;;;98.55;65.10;;;;;;;22.75;38.41;102321.09;5089005;28;20035;-59
2023/04/16 15:38:29;;;;;;;103.57;68.53;;;;;;;22.68;38.71;102319.06;5076908;28;20398;-50
2023/04/16 15:41:00;;;;;;;112.95;72.47;;;;;;;22.77;39.19;102314.22;5072968;28;20028;-47
2023/04/16 15:43:29;;;;;;;121.03;83.28;;;;;;;22.97;38.45;102321.94;5055855;28;20023;-50
2023/04/16 15:45:57;;;;;;;105.03;71.75;;;;;;;22.94;38.87;102313.97;5072813;28;20470;-59
2023/04/16 15:48:25;;;;;;;139.23;92.35;;;;;;;23.00;38.89;102306.38;5072773;28;20397;-49
2023/04/16 15:50:54;;;;;;;140.82;95.78;;;;;;;23.00;39.43;102303.75;5072878;28;20025;-46
2023/04/16 15:53:22;;;;;;;131.43;84.38;;;;;;;22.88;39.29;102306.78;5072088;28;20099;-49
2023/04/16 15:55:52;;;;;;;128.25;89.38;;;;;;;22.90;39.26;102306.00;5073030;28;20536;-48
2023/04/16 15:58:20;;;;;;;141.75;92.85;;;;;;;23.08;39.35;102294.44;5080940;28;20427;-50
2023/04/16 16:00:49;;;;;;;125.13;84.97;;;;;;;23.17;38.66;102291.28;5087324;28;20401;-53
2023/04/16 16:03:18;;;;;;;136.75;95.13;;;;;;;23.12;39.22;102292.84;5092182;28;20024;-48
2023/04/16 16:05:47;;;;;;;129.60;89.57;;;;;;;23.12;38.82;102288.50;5092172;28;20027;-49
2023/04/16 16:08:15;;;;;;;136.77;92.85;;;;;;;23.11;38.70;102284.09;5088030;28;20028;-49
2023/04/16 16:10:42;;;;;;;158.88;105.60;;;;;;;23.14;39.08;102285.94;5091861;28;20035;-53
2023/04/16 16:13:12;;;;;;;150.23;100.35;;;;;;;23.17;39.02;102286.94;5088295;28;20024;-51
2023/04/16 16:15:40;;;;;;;153.23;101.78;;;;;;;23.23;38.49;102278.47;5107709;22;20144;-52
2023/04/16 16:18:07;;;;;;;165.50;110.22;;;;;;;22.59;38.79;102186.19;5050886;28;20036;-53
2023/04/16 16:20:35;;;;;;;162.60;110.07;;;;;;;23.17;38.87;102279.06;5051307;28;20033;-49
2023/04/16 16:23:03;;;;;;;163.60;106.80;;;;;;;23.07;39.22;102279.59;5052742;28;20500;-49
2023/04/16 16:25:30;;;;;;;148.02;99.15;;;;;;;23.18;38.47;102280.88;5052516;28;20398;-59
2023/04/16 16:27:58;;;;;;;150.80;101.63;;;;;;;23.10;38.65;102274.47;5041078;28;20026;-48
2023/04/16 16:30:26;;;;;;;165.93;111.45;;;;;;;23.24;38.46;102274.13;5031382;28;20025;-53
2023/04/16 16:32:54;;;;;;;147.70;99.43;;;;;;;23.08;37.86;102278.75;5032853;28;20072;-49
2023/04/16 16:35:22;;;;;;;164.82;108.38;;;;;;;23.13;38.32;102271.97;5032627;28;20425;-58
2023/04/16 16:37:54;;;;;;;150.48;104.43;;;;;;;23.05;38.23;102276.91;5032322;28;20034;-49
2023/04/16 16:40:22;;;;;;;148.10;101.78;;;;;;;23.09;37.89;102270.06;5036338;28;20025;-50
2023/04/16 16:42:50;;;;;;;144.48;98.72;;;;;;;22.98;37.19;102271.41;5036154;28;20127;-49
2023/04/16 16:45:18;;;;;;;139.15;93.57;;;;;;;22.86;37.35;102267.47;5035416;28;20022;-53
2023/04/16 16:47:47;;;;;;;147.82;98.95;;;;;;;22.97;37.16;102267.00;5036351;28;20033;-60
2023/04/16 16:50:15;;;;;;;124.78;83.53;;;;;;;22.92;36.77;102265.09;5036122;28;20112;-49
2023/04/16 16:52:43;;;;;;;137.68;91.85;;;;;;;22.96;37.47;102273.94;5034937;28;20033;-61
2023/04/16 16:55:10;;;;;;;170.65;116.88;;;;;;;22.99;38.31;102268.81;5035782;28;20036;-58
2023/04/16 16:57:39;;;;;;;195.60;128.95;;;;;;;23.01;38.74;102269.78;5035512;28;20043;-50
2023/04/16 17:00:10;;;;;;;194.40;128.25;;;;;;;23.10;38.70;102274.47;5036305;28;20030;-52
2023/04/16 17:02:38;;;;;;;188.35;127.03;;;;;;;23.15;38.45;102269.41;5035499;28;20029;-54
2023/04/16 17:05:06;;;;;;;183.90;127.18;;;;;;;23.21;38.41;102270.53;5036317;28;20100;-49
2023/04/16 17:07:33;;;;;;;180.13;127.65;;;;;;;23.28;38.20;102270.78;5018379;28;20032;-53
2023/04/16 17:10:01;;;;;;;201.38;137.05;;;;;;;23.33;38.33;102271.84;5035782;28;20025;-53
2023/04/16 17:12:28;;;;;;;197.90;138.30;;;;;;;23.34;38.72;102273.59;5035734;28;20034;-50
2023/04/16 17:14:55;;;;;;;213.32;147.25;;;;;;;23.37;38.94;102271.09;5036027;28;20121;-53
2023/04/16 17:17:23;;;;;;;214.73;148.93;;;;;;;23.41;38.72;102272.13;5036064;28;20032;-48
2023/04/16 17:19:50;;;;;;;216.40;148.70;;;;;;;23.49;38.79;102276.81;5036028;28;20029;-54
2023/04/16 17:22:18;;;;;;;212.10;147.20;;;;;;;23.56;38.80;102275.28;5035362;28;20448;-49
2023/04/16 17:24:46;;;;;;;214.35;152.27;;;;;;;23.55;38.71;102280.47;5035659;28;20030;-59
2023/04/16 17:27:14;;;;;;;218.32;154.65;;;;;;;23.56;38.73;102279.63;5034630;28;20083;-52
2023/04/16 17:29:42;;;;;;;234.00;157.27;;;;;;;23.61;39.03;102275.44;5035663;28;20067;-54
2023/04/16 17:32:09;;;;;;;228.40;159.77;;;;;;;23.52;39.35;102273.41;5034474;28;20409;-53
2023/04/16 17:34:37;;;;;;;241.38;170.85;;;;;;;23.52;39.40;102282.13;5035416;28;20146;-47
2023/04/16 17:37:04;;;;;;;234.38;161.30;;;;;;;23.50;39.05;102282.91;5035598;28;20034;-49
2023/04/16 17:39:32;;;;;;;231.18;159.50;;;;;;;23.52;39.63;102278.63;5035349;28;20374;-48
2023/04/16 17:42:01;;;;;;;228.98;162.43;;;;;;;23.49;39.34;102282.03;5035412;28;20112;-53
2023/04/16 17:44:29;;;;;;;228.20;162.82;;;;;;;23.60;39.25;102279.78;5033506;28;20390;-54
2023/04/16 17:46:56;;;;;;;235.45;169.05;;;;;;;23.66;39.17;102279.13;5035469;28;20489;-53
2023/04/16 17:49:23;;;;;;;234.25;165.80;;;;;;;23.60;39.53;102271.91;5034181;28;20041;-50
2023/04/16 17:51:52;;;;;;;235.27;163.55;;;;;;;23.66;39.50;102269.53;5035080;28;20091;-52
2023/04/16 17:54:19;;;;;;;235.52;164.07;;;;;;;23.65;39.52;102267.75;5034790;28;20023;-54
2023/04/16 17:56:48;;;;;;;233.75;166.82;;;;;;;23.62;39.61;102267.63;5035305;28;20017;-49
2023/04/16 17:59:15;;;;;;;235.60;164.25;;;;;;;23.65;39.62;102269.50;5035330;28;20026;-54
2023/04/16 18:01:44;;;;;;;235.32;162.95;;;;;;;23.68;39.75;102272.19;5034900;28;20104;-48
